Portada
METAR-TAF:

METAR-TAF

Aeropuertos :

Aeropuerto Internacional de Puerto Maldonado

Puerto Maldonado, Perú

latitud: 12-38S, longitud: 069-12W, altitud: 265 m

Observación

El informe se hizo hace 21 minutos, a las 18:00 UTC
Viento 7 kt del noroeste, variando entre oeste y norte
Temperatura 35°C
Humedad 56%
Presión 1009 hPa
Visibilidad 10 km o más
Cielo nuboso a una altura de 2500 ft

METAR: SPTU 271800Z 31007KT 260V360 9999 BKN025 35/25 Q1009 RMK BIRD HAZARD RWY 01/19 PP000

Hora: 13:21 (18:21 UTC)

Pronóstico

El informe se hizo hace 1 hora y 21 minutos, a las 17:00 UTC
Pronóstico válido del 27 a las 18 UTC al 28 a las 18 UTC
Viento 5 kt del norte-noroeste
Visibilidad 10 km o más
Cielo nuboso a una altura de 2000 ft
Evolucionando progresivamente
del 27 a las 19 UTC al 27 a las 21 UTC
Nubes dispersas a una altura de 1000 ft

TAF: SPTU 271700Z 2718/2818 33005KT 9999 BKN020 TX34/2720Z TN23/2811Z BECMG 2719/2721 SCT010

Observaciones y pronósticos meteorológicos de más de 4000 aeropuertos (mensajes METAR y TAF).

Los puntos amarillos y rojos representan las estaciones disponibles.

Ponga el ratón en el punto deseado para ver el nombre de la estación.

Haga clic para ver las observaciones y los pronósticos meteorológicos.

Para cambiar el mapa : haga clic en los botones verdes con una cruz de color negro para hacer un zoom, en el botón verde con un guión para alejar o en las flechas verdes para mapas adyacentes.


METAR-TAF: